Stations météo

Publicité
Kielder Castle, Grande-Bretagne (99186): Température de l'air & dewpoint: 12.12.2017 22:00:00 - 18.12.2017 22:00:00 (GMT)Kielder Castle, Grande-Bretagne (99186): Température de l'air -20cm & Température de l'air -100cm: 12.12.2017 22:00:00 - 18.12.2017 22:00:00 (GMT)Kielder Castle, Grande-Bretagne (99186): Quantités de précipitations: 12.12.2017 22:00:00 - 18.12.2017 22:00:00 (GMT)
Date & Time tt [°C] td [°C] tt -20cm [°C] tt -100cm [°C] rr [mm]
18.12.2017 22:00:00 - - - - -
18.12.2017 21:00:00 5,2 4,6 - - 0,0
18.12.2017 20:00:00 5,0 4,7 - - 0,0
18.12.2017 19:00:00 5,0 4,9 - - 0,0
18.12.2017 18:00:00 4,3 4,2 - - 0,0
18.12.2017 17:00:00 3,4 3,4 - - 0,0
18.12.2017 16:00:00 3,6 3,5 - - 0,0
18.12.2017 15:00:00 3,0 2,9 - - 0,0
18.12.2017 14:00:00 2,0 1,8 - - 0,0
18.12.2017 13:00:00 1,1 0,9 - - 0,2
18.12.2017 12:00:00 -0,3 -0,5 - - 0,0
18.12.2017 11:00:00 -1,6 -1,9 - - 0,0
18.12.2017 10:00:00 -2,6 -3,0 - - 0,0
18.12.2017 09:00:00 -3,3 -3,7 1,7 4,7 0,0
18.12.2017 08:00:00 -3,1 -3,5 - - 0,0
18.12.2017 07:00:00 -3,3 -3,7 - - 0,0
18.12.2017 06:00:00 -3,3 -3,7 - - 0,0
18.12.2017 05:00:00 -3,0 -3,4 - - 0,0
18.12.2017 04:00:00 -2,7 -3,1 - - 0,0
18.12.2017 03:00:00 -2,3 -2,6 - - 0,0
18.12.2017 02:00:00 -1,5 -1,6 - - 0,0
18.12.2017 01:00:00 -1,9 -2,1 - - 0,0
18.12.2017 00:00:00 -1,7 -1,9 - - 0,0
17.12.2017 23:00:00 -1,5 -1,7 - - 0,0
17.12.2017 22:00:00 -0,9 -1,1 - - 0,0
17.12.2017 21:00:00 -0,9 -1,2 - - 0,0
17.12.2017 20:00:00 0,1 -0,2 - - 0,0
17.12.2017 19:00:00 0,4 0,1 - - 0,0
17.12.2017 18:00:00 1,3 0,7 - - 0,2
17.12.2017 17:00:00 3,4 2,4 - - 0,0
17.12.2017 16:00:00 6,5 4,8 - - 0,0
17.12.2017 15:00:00 7,0 6,6 - - 0,0
17.12.2017 14:00:00 6,9 6,6 - - 0,2
17.12.2017 13:00:00 6,2 5,8 - - 0,4
17.12.2017 12:00:00 5,7 5,3 - - 0,4
17.12.2017 11:00:00 4,6 4,5 - - 1,2
17.12.2017 10:00:00 3,2 3,1 - - 0,6
17.12.2017 09:00:00 2,7 2,7 1,7 4,7 0,6
17.12.2017 08:00:00 0,0 -0,2 - - 0,0
17.12.2017 07:00:00 -0,5 -0,6 - - 0,0
17.12.2017 06:00:00 -1,1 -1,3 - - 0,0
17.12.2017 05:00:00 -1,6 -1,8 - - 0,0
17.12.2017 04:00:00 -2,2 -2,5 - - 0,0
17.12.2017 03:00:00 -3,0 -3,4 - - 0,0
17.12.2017 02:00:00 -3,7 -4,1 - - 0,0
17.12.2017 01:00:00 -4,5 -4,9 - - 0,0
17.12.2017 00:00:00 -5,2 -5,9 - - 0,0
16.12.2017 23:00:00 -5,5 -6,1 - - 0,0
16.12.2017 22:00:00 -5,5 -6,1 - - 0,0
16.12.2017 21:00:00 -4,8 -5,4 - - 0,0
16.12.2017 20:00:00 -4,3 -4,9 - - 0,0
16.12.2017 19:00:00 -3,8 -4,3 - - 0,0
16.12.2017 18:00:00 -3,6 -4,2 - - 0,0
16.12.2017 17:00:00 -2,6 -3,1 - - 0,0
16.12.2017 16:00:00 -1,8 -2,5 - - 0,0
16.12.2017 15:00:00 -0,5 -1,7 - - 0,0
16.12.2017 14:00:00 0,0 -1,2 - - 0,0
16.12.2017 13:00:00 -0,1 -1,3 - - 0,2
16.12.2017 12:00:00 0,1 -1,5 - - 0,0
16.12.2017 11:00:00 -0,9 -2,0 - - 0,0
16.12.2017 10:00:00 -2,0 -2,8 - - 0,0
16.12.2017 09:00:00 -2,0 -2,7 2,0 4,9 0,0
16.12.2017 08:00:00 -2,7 -3,3 - - 0,0
16.12.2017 07:00:00 -3,8 -4,4 - - 0,0
16.12.2017 06:00:00 -4,1 -4,6 - - 0,0
16.12.2017 05:00:00 -4,0 -4,6 - - 0,0
16.12.2017 04:00:00 -2,8 -3,5 - - 0,0
16.12.2017 03:00:00 -2,5 -3,2 - - 0,0
16.12.2017 02:00:00 -2,2 -2,9 - - 0,0
16.12.2017 01:00:00 -1,4 -2,2 - - 0,0
16.12.2017 00:00:00 -0,9 -1,8 - - 0,0
15.12.2017 23:00:00 -1,8 -2,2 - - 0,0
15.12.2017 22:00:00 -2,3 -2,7 - - 0,0
15.12.2017 21:00:00 -1,9 -2,5 - - 0,0
15.12.2017 20:00:00 -1,0 -2,0 - - 0,0
15.12.2017 19:00:00 0,7 -1,6 - - 0,0
15.12.2017 18:00:00 - - - - 0,0
15.12.2017 17:00:00 1,4 -0,8 - - 0,0
15.12.2017 16:00:00 1,3 -0,4 - - 0,0
15.12.2017 15:00:00 2,2 0,0 - - 0,0
15.12.2017 14:00:00 2,9 0,6 - - 0,0
15.12.2017 13:00:00 3,2 1,4 - - 0,0
15.12.2017 12:00:00 2,6 1,3 - - 0,0
15.12.2017 11:00:00 2,6 1,6 - - 0,4
15.12.2017 10:00:00 2,5 1,6 - - 1,2
15.12.2017 09:00:00 2,0 1,4 2,0 5,0 1,8
15.12.2017 08:00:00 1,7 1,1 - - 0,0
15.12.2017 07:00:00 0,9 0,5 - - 0,0
15.12.2017 06:00:00 0,4 -0,3 - - 0,0
15.12.2017 05:00:00 0,6 -0,1 - - 0,0
15.12.2017 04:00:00 -0,6 -1,0 - - 0,0
15.12.2017 03:00:00 -0,2 -0,7 - - 0,0
15.12.2017 02:00:00 0,3 -0,4 - - 0,0
15.12.2017 01:00:00 -1,2 -1,4 - - 0,0
15.12.2017 00:00:00 -2,6 -2,9 - - 0,0
14.12.2017 23:00:00 -2,7 -3,1 - - 0,0
14.12.2017 22:00:00 -2,2 -2,6 - - 0,0
14.12.2017 21:00:00 -1,5 -1,8 - - 0,0
14.12.2017 20:00:00 -1,1 -1,4 - - 0,0
14.12.2017 19:00:00 -1,0 -1,6 - - 0,0
14.12.2017 18:00:00 0,3 -0,6 - - 0,0
14.12.2017 17:00:00 1,5 0,4 - - 0,0
14.12.2017 16:00:00 1,8 0,9 - - 0,0
14.12.2017 15:00:00 1,9 1,2 - - 0,0
14.12.2017 14:00:00 2,1 1,5 - - 0,6
14.12.2017 13:00:00 1,5 0,7 - - 1,4
14.12.2017 12:00:00 2,6 1,8 - - 0,2
14.12.2017 11:00:00 2,3 1,6 - - 1,4
14.12.2017 10:00:00 2,0 1,3 - - 0,2
14.12.2017 09:00:00 1,7 1,0 2,2 5,2 0,8
14.12.2017 08:00:00 1,5 0,8 - - 0,0
14.12.2017 07:00:00 1,4 0,5 - - 0,0
14.12.2017 06:00:00 1,2 0,0 - - 0,0
14.12.2017 05:00:00 1,0 -0,1 - - 0,0
14.12.2017 04:00:00 0,3 -0,5 - - 0,0
14.12.2017 03:00:00 0,3 -0,7 - - 0,0
14.12.2017 02:00:00 -0,1 -1,0 - - 0,0
14.12.2017 01:00:00 0,0 -1,1 - - 0,0
14.12.2017 00:00:00 0,3 -1,0 - - 0,0
13.12.2017 23:00:00 0,7 -0,6 - - 0,0
13.12.2017 22:00:00 0,5 -0,6 - - 0,0
13.12.2017 21:00:00 0,7 -0,3 - - 0,0
13.12.2017 20:00:00 0,9 -0,3 - - 0,0
13.12.2017 19:00:00 0,9 0,0 - - 0,0
13.12.2017 18:00:00 0,6 -0,2 - - 0,0
13.12.2017 17:00:00 0,9 -0,2 - - 0,0
13.12.2017 16:00:00 0,7 -0,3 - - 0,0
13.12.2017 15:00:00 1,5 0,2 - - 0,2
13.12.2017 14:00:00 2,5 1,1 - - 0,0
13.12.2017 13:00:00 2,8 1,9 - - 0,4
13.12.2017 12:00:00 4,1 3,2 - - 0,2
13.12.2017 11:00:00 4,5 3,7 - - 1,0
13.12.2017 10:00:00 4,8 4,1 - - 1,6
13.12.2017 09:00:00 4,1 3,4 2,2 5,2 2,4
13.12.2017 08:00:00 4,2 3,6 - - 1,4
13.12.2017 07:00:00 4,1 3,3 - - 0,2
13.12.2017 06:00:00 3,3 2,6 - - 0,0
13.12.2017 05:00:00 3,2 2,3 - - 0,0
13.12.2017 04:00:00 3,1 2,3 - - 0,0
13.12.2017 03:00:00 2,9 2,2 - - 0,0
13.12.2017 02:00:00 2,8 1,9 - - 0,0
13.12.2017 01:00:00 3,0 2,3 - - 0,2
13.12.2017 00:00:00 2,9 2,0 - - 0,0
12.12.2017 23:00:00 3,1 2,4 - - 0,0
12.12.2017 22:00:00 2,5 2,3 - - 0,4

tt = Température de l'air
td = dewpoint
tt -20cm = Température de l'air -20cm
tt -100cm = Température de l'air -100cm
rr = Quantités de précipitations

stations d'obs. à proximité